Time;durP1;ratioP1;P1;durP2;ratioP2;P2;SDS_P1;SDS_P2;PMS_P1;PMS_P2;Temp;Humidity;BMP_temperature;BMP_pressure;BME280_temperature;BME280_humidity;BME280_pressure;Samples;Min_cycle;Max_cycle;Signal;HPM_P1;HPM_P2
2022/01/26 00:00:05;;;;;;;59.92;26.92;;;3.50;99.90;;;;;;5114339;28;20048;-62
2022/01/26 00:08:00;;;;;;;57.78;27.88;;;3.30;99.90;;;;;;5149545;27;20051;-61
2022/01/26 00:10:27;;;;;;;63.75;27.92;;;3.20;99.90;;;;;;5155568;27;20043;-61
2022/01/26 00:12:53;;;;;;;56.35;24.63;;;3.30;99.90;;;;;;5115663;27;20051;-62
2022/01/26 00:15:19;;;;;;;59.10;25.88;;;3.10;99.90;;;;;;5122365;28;20079;-62
2022/01/26 00:17:45;;;;;;;61.65;27.00;;;3.10;99.90;;;;;;5120138;28;20050;-62
2022/01/26 00:20:25;;;;;;;62.17;28.63;;;3.10;99.90;;;;;;5155972;27;20047;-62
2022/01/26 00:27:53;;;;;;;63.97;27.95;;;3.10;99.90;;;;;;5116342;28;20051;-61
2022/01/26 00:38:43;;;;;;;57.35;26.38;;;3.20;99.90;;;;;;5122255;28;20118;-62
2022/01/26 00:41:14;;;;;;;63.65;27.58;;;3.20;99.90;;;;;;5113882;28;20389;-61
2022/01/26 00:43:47;;;;;;;63.45;29.52;;;3.40;99.90;;;;;;5121734;28;20043;-62
2022/01/26 00:46:13;;;;;;;61.15;28.55;;;3.50;99.90;;;;;;5127542;28;20043;-62
2022/01/26 00:48:40;;;;;;;62.08;28.33;;;3.30;99.90;;;;;;5160803;27;20078;-62
2022/01/26 00:51:07;;;;;;;62.97;28.30;;;3.20;99.90;;;;;;5154620;27;20051;-61
2022/01/26 00:54:00;;;;;;;63.88;28.63;;;3.20;99.90;;;;;;5127018;28;20048;-62
2022/01/26 00:56:26;;;;;;;61.17;28.08;;;3.10;99.90;;;;;;5125843;28;20051;-61
2022/01/26 00:58:52;;;;;;;58.92;26.98;;;3.20;99.90;;;;;;5110646;28;20079;-61
2022/01/26 01:01:18;;;;;;;62.42;28.85;;;3.20;99.90;;;;;;5117081;28;20043;-61
2022/01/26 01:03:45;;;;;;;60.47;27.23;;;3.10;99.90;;;;;;5126412;28;20415;-62
2022/01/26 01:06:22;;;;;;;59.63;27.83;;;3.30;99.90;;;;;;5153444;27;20047;-62
2022/01/26 01:08:48;;;;;;;59.90;26.80;;;3.30;99.90;;;;;;5125913;28;20078;-62
2022/01/26 01:11:14;;;;;;;62.80;28.52;;;3.30;99.90;;;;;;5118157;28;20482;-62
2022/01/26 01:13:42;;;;;;;59.22;25.88;;;3.30;99.90;;;;;;5150405;27;20044;-61
2022/01/26 01:16:12;;;;;;;61.65;27.92;;;3.20;99.90;;;;;;5159067;27;20035;-61
2022/01/26 01:18:47;;;;;;;61.70;28.60;;;3.10;99.90;;;;;;5160050;27;20069;-62
2022/01/26 01:24:17;;;;;;;58.70;27.08;;;2.90;99.90;;;;;;5126749;28;20055;-62
2022/01/26 01:29:37;;;;;;;64.93;28.90;;;3.00;99.90;;;;;;5115672;28;20066;-61
2022/01/26 01:32:11;;;;;;;58.85;27.08;;;3.00;99.90;;;;;;5156716;27;20055;-62
2022/01/26 01:34:39;;;;;;;63.47;27.33;;;3.10;99.90;;;;;;5153385;27;20506;-61
2022/01/26 01:37:11;;;;;;;59.78;26.92;;;3.10;99.90;;;;;;5152857;27;20122;-61
2022/01/26 01:39:37;;;;;;;60.10;27.20;;;3.00;99.90;;;;;;5156920;27;20582;-62
2022/01/26 01:42:06;;;;;;;60.85;29.75;;;2.90;99.90;;;;;;5114922;28;20566;-62
2022/01/26 01:44:32;;;;;;;63.13;28.42;;;3.00;99.90;;;;;;5159635;27;20051;-62
2022/01/26 01:46:58;;;;;;;66.13;29.25;;;3.00;99.90;;;;;;5126106;28;20040;-62
2022/01/26 01:49:24;;;;;;;62.35;28.73;;;2.90;99.90;;;;;;5159762;27;20044;-62
2022/01/26 01:51:55;;;;;;;63.15;27.52;;;2.90;99.90;;;;;;5126073;28;20469;-61
2022/01/26 01:54:21;;;;;;;64.25;29.00;;;2.90;99.90;;;;;;5117672;28;20051;-62
2022/01/26 01:56:56;;;;;;;63.85;28.45;;;2.80;99.90;;;;;;5125960;27;20073;-62
2022/01/26 01:59:24;;;;;;;58.75;26.27;;;2.70;99.90;;;;;;5118775;28;20103;-61
2022/01/26 02:01:50;;;;;;;62.28;27.98;;;2.80;99.90;;;;;;5125545;28;20377;-62
2022/01/26 02:04:16;;;;;;;62.20;27.92;;;3.00;99.90;;;;;;5115743;28;20063;-61
2022/01/26 02:06:43;;;;;;;60.38;27.52;;;3.00;99.90;;;;;;5115707;28;20039;-62
2022/01/26 02:09:09;;;;;;;61.53;27.02;;;2.90;99.90;;;;;;5124123;28;20044;-61
2022/01/26 02:11:42;;;;;;;67.10;28.73;;;2.80;99.90;;;;;;5118360;28;20043;-61
2022/01/26 02:14:15;;;;;;;62.85;27.98;;;2.80;99.90;;;;;;5124400;28;20039;-61
2022/01/26 02:16:49;;;;;;;59.92;27.60;;;2.80;99.90;;;;;;5156658;27;20087;-61
2022/01/26 02:49:44;;;;;;;56.42;25.35;;;2.70;99.90;;;;;;5112109;28;20096;-61
2022/01/26 03:00:00;;;;;;;63.92;28.05;;;2.80;99.90;;;;;;5099211;28;20052;-61
2022/01/26 03:02:49;;;;;;;55.35;24.45;;;2.70;99.90;;;;;;5076666;28;20035;-61
2022/01/26 03:05:17;;;;;;;63.72;28.65;;;2.80;99.90;;;;;;5087268;28;20039;-61
2022/01/26 03:10:19;;;;;;;62.63;26.25;;;2.80;99.90;;;;;;5082192;28;20126;-61
2022/01/26 03:12:51;;;;;;;61.53;26.83;;;2.90;99.90;;;;;;5120814;28;20082;-62
2022/01/26 03:15:24;;;;;;;60.58;27.55;;;2.90;99.90;;;;;;5085587;28;20083;-61
2022/01/26 03:20:29;;;;;;;58.53;25.55;;;2.70;99.90;;;;;;5078742;28;20377;-61
2022/01/26 03:28:45;;;;;;;65.07;26.85;;;2.70;99.90;;;;;;5074723;28;20059;-61
2022/01/26 03:36:10;;;;;;;67.80;28.70;;;2.50;99.90;;;;;;5073621;28;20136;-61
2022/01/26 03:38:46;;;;;;;63.58;26.33;;;2.50;99.90;;;;;;5072696;28;20071;-61
2022/01/26 03:41:38;;;;;;;66.72;29.63;;;2.60;99.90;;;;;;5096549;28;20043;-61
2022/01/26 03:44:04;;;;;;;65.38;27.05;;;2.60;99.90;;;;;;5124190;28;20055;-61
2022/01/26 03:46:30;;;;;;;58.58;26.50;;;2.60;99.90;;;;;;5101442;28;20052;-61
2022/01/26 03:48:56;;;;;;;62.20;27.30;;;2.60;99.90;;;;;;5108285;28;20056;-61
2022/01/26 03:51:22;;;;;;;68.40;30.15;;;2.60;99.90;;;;;;5090013;28;20099;-62
2022/01/26 03:53:47;;;;;;;67.22;29.08;;;2.50;99.90;;;;;;5106390;28;20564;-62
2022/01/26 03:56:13;;;;;;;59.47;26.23;;;2.50;99.90;;;;;;5109875;28;20103;-62
2022/01/26 03:58:39;;;;;;;64.20;28.98;;;2.60;99.90;;;;;;5128913;28;20051;-61
2022/01/26 04:01:05;;;;;;;67.85;29.38;;;2.50;99.90;;;;;;5128234;28;20059;-62
2022/01/26 04:03:30;;;;;;;73.88;28.65;;;2.50;99.90;;;;;;5128448;28;20055;-62
2022/01/26 04:05:56;;;;;;;74.45;29.27;;;2.40;99.90;;;;;;5129213;28;20046;-61
2022/01/26 04:08:27;;;;;;;69.65;29.58;;;2.40;99.90;;;;;;5128329;28;20132;-61
2022/01/26 04:13:28;;;;;;;65.45;28.23;;;2.60;99.90;;;;;;5110189;28;20051;-61
2022/01/26 04:15:54;;;;;;;68.85;29.17;;;2.60;99.90;;;;;;5092622;28;20065;-61
2022/01/26 04:18:26;;;;;;;62.97;27.08;;;2.60;99.90;;;;;;5128681;28;20045;-61
2022/01/26 04:20:56;;;;;;;61.53;27.48;;;2.60;99.90;;;;;;5128122;28;20163;-61
2022/01/26 04:23:34;;;;;;;64.28;26.60;;;2.60;99.90;;;;;;5108184;28;20035;-61
2022/01/26 04:26:00;;;;;;;64.55;26.52;;;2.70;99.90;;;;;;5126296;28;20101;-61
2022/01/26 04:28:32;;;;;;;62.33;27.05;;;2.70;99.90;;;;;;5109666;28;20048;-61
2022/01/26 04:30:58;;;;;;;66.57;28.98;;;2.80;99.90;;;;;;5127325;28;20082;-61
2022/01/26 04:33:24;;;;;;;64.60;27.40;;;2.80;99.90;;;;;;5109412;28;20550;-62
2022/01/26 04:35:49;;;;;;;60.92;28.77;;;2.80;99.90;;;;;;5127691;28;20044;-61
2022/01/26 04:43:37;;;;;;;57.35;26.77;;;2.80;99.90;;;;;;5077890;28;20054;-62
2022/01/26 04:46:03;;;;;;;62.95;27.20;;;2.80;99.90;;;;;;5127635;28;20055;-61
2022/01/26 04:48:29;;;;;;;62.42;29.20;;;2.80;99.90;;;;;;5125338;28;20036;-62
2022/01/26 04:50:54;;;;;;;63.22;27.98;;;2.70;99.90;;;;;;5108976;28;20048;-61
2022/01/26 04:53:20;;;;;;;64.25;28.02;;;2.60;99.90;;;;;;5107872;28;20051;-62
2022/01/26 04:55:46;;;;;;;64.65;29.23;;;2.60;99.90;;;;;;5140534;27;20082;-62
2022/01/26 04:58:13;;;;;;;61.42;25.35;;;2.70;99.90;;;;;;5108382;28;20052;-62
2022/01/26 05:00:38;;;;;;;59.90;27.38;;;2.80;99.90;;;;;;5101326;28;20048;-61
2022/01/26 05:03:04;;;;;;;61.92;28.77;;;2.90;99.90;;;;;;5107733;28;20369;-61
2022/01/26 05:05:30;;;;;;;62.30;27.42;;;2.80;99.90;;;;;;5106421;28;20081;-61
2022/01/26 05:07:56;;;;;;;59.30;27.48;;;2.70;99.90;;;;;;5124498;28;20555;-61
2022/01/26 05:10:21;;;;;;;60.67;28.05;;;2.70;99.90;;;;;;5118899;28;20048;-62
2022/01/26 05:12:47;;;;;;;62.88;28.30;;;2.70;99.90;;;;;;5108442;28;20046;-62
2022/01/26 05:15:14;;;;;;;62.58;26.75;;;2.70;99.90;;;;;;5143054;27;20449;-61
2022/01/26 05:17:41;;;;;;;61.97;27.05;;;2.80;99.90;;;;;;5108381;28;20048;-62
2022/01/26 05:20:09;;;;;;;60.92;26.27;;;2.80;99.90;;;;;;5120077;28;20035;-61
2022/01/26 05:22:40;;;;;;;55.03;25.70;;;2.70;99.90;;;;;;5120743;28;20042;-62
2022/01/26 05:25:06;;;;;;;64.63;27.55;;;2.70;99.90;;;;;;5109677;28;20054;-61
2022/01/26 05:27:32;;;;;;;63.17;28.05;;;2.60;99.90;;;;;;5126662;28;20091;-62
2022/01/26 05:29:58;;;;;;;60.20;25.83;;;2.70;99.90;;;;;;5105216;28;20095;-62
2022/01/26 05:32:24;;;;;;;61.92;26.73;;;2.70;99.90;;;;;;5121153;28;20571;-61
2022/01/26 05:34:50;;;;;;;65.68;29.20;;;2.60;99.90;;;;;;5123944;28;20062;-61
2022/01/26 05:37:16;;;;;;;59.45;26.30;;;2.60;99.90;;;;;;5116871;28;20044;-61
2022/01/26 05:39:42;;;;;;;57.72;26.35;;;2.50;99.90;;;;;;5105124;28;20044;-61
2022/01/26 05:42:08;;;;;;;57.92;24.08;;;2.60;99.90;;;;;;5105008;28;20069;-62
2022/01/26 05:44:34;;;;;;;60.47;26.35;;;2.70;99.90;;;;;;5119774;28;20054;-61
2022/01/26 05:47:00;;;;;;;59.00;25.63;;;2.70;99.90;;;;;;5108724;28;20546;-61
2022/01/26 05:49:26;;;;;;;55.53;25.17;;;2.60;99.90;;;;;;5120256;28;20048;-61
2022/01/26 05:51:52;;;;;;;58.95;26.20;;;2.60;99.90;;;;;;5121515;28;20036;-62
2022/01/26 05:54:18;;;;;;;55.97;24.55;;;2.60;99.90;;;;;;5121963;28;20047;-61
2022/01/26 05:56:47;;;;;;;55.60;23.42;;;2.60;99.90;;;;;;5108893;28;20039;-62
2022/01/26 05:59:20;;;;;;;58.72;24.02;;;2.70;99.90;;;;;;5104872;28;20054;-62
2022/01/26 06:01:47;;;;;;;54.35;25.23;;;2.80;99.90;;;;;;5107722;28;20123;-62
2022/01/26 06:04:13;;;;;;;57.40;23.38;;;2.90;99.90;;;;;;5107849;28;20062;-61
2022/01/26 06:06:38;;;;;;;53.42;25.33;;;2.70;99.90;;;;;;5125878;28;20048;-62
2022/01/26 06:09:04;;;;;;;54.88;25.13;;;2.60;99.90;;;;;;5123337;28;20065;-62
2022/01/26 06:11:30;;;;;;;58.72;26.17;;;2.60;99.90;;;;;;5125862;28;20071;-62
2022/01/26 06:13:55;;;;;;;50.10;22.35;;;2.60;99.90;;;;;;5107081;28;20056;-60
2022/01/26 06:16:22;;;;;;;53.72;22.58;;;2.60;99.90;;;;;;5070270;28;20047;-62
2022/01/26 06:18:48;;;;;;;50.63;22.02;;;2.70;99.90;;;;;;5107909;28;20056;-61
2022/01/26 06:21:14;;;;;;;54.75;24.50;;;2.70;99.90;;;;;;5125108;28;20486;-62
2022/01/26 06:23:40;;;;;;;53.22;23.52;;;2.60;99.90;;;;;;5122721;28;20040;-63
2022/01/26 06:26:07;;;;;;;50.60;22.25;;;2.70;99.90;;;;;;5136598;27;20071;-63
2022/01/26 06:28:33;;;;;;;53.78;22.30;;;2.70;99.90;;;;;;5122617;28;20048;-63
2022/01/26 06:31:03;;;;;;;51.72;23.15;;;2.90;99.90;;;;;;5106670;28;20043;-63
2022/01/26 06:33:32;;;;;;;48.45;21.77;;;2.70;99.90;;;;;;5140585;27;20066;-63
2022/01/26 06:35:59;;;;;;;51.03;21.90;;;2.60;99.90;;;;;;5138299;27;20048;-64
2022/01/26 06:38:27;;;;;;;50.20;22.13;;;2.60;99.90;;;;;;5122904;28;20554;-63
2022/01/26 06:40:54;;;;;;;50.42;22.70;;;2.60;99.90;;;;;;5106527;28;20124;-63
2022/01/26 06:43:22;;;;;;;49.72;22.50;;;2.60;99.90;;;;;;5124606;28;20036;-63
2022/01/26 06:45:53;;;;;;;53.10;22.65;;;2.50;99.90;;;;;;5122897;28;20056;-63
2022/01/26 06:50:53;;;;;;;49.70;22.38;;;2.40;99.90;;;;;;5125479;28;20058;-63
2022/01/26 06:53:19;;;;;;;53.55;23.15;;;2.40;99.90;;;;;;5123052;28;20083;-63
2022/01/26 06:55:45;;;;;;;45.25;21.50;;;2.50;99.90;;;;;;5104260;28;20055;-63
2022/01/26 06:58:11;;;;;;;48.63;21.50;;;2.50;99.90;;;;;;5119221;28;20074;-63
2022/01/26 07:00:36;;;;;;;48.08;22.10;;;2.50;99.90;;;;;;5123194;28;20048;-63
2022/01/26 07:03:02;;;;;;;48.63;21.70;;;2.50;99.90;;;;;;5122770;28;20046;-63
2022/01/26 07:05:28;;;;;;;52.60;22.88;;;2.40;99.90;;;;;;5124087;28;20066;-63
2022/01/26 07:07:54;;;;;;;48.53;22.70;;;2.40;99.90;;;;;;5105083;28;20036;-63
2022/01/26 07:10:20;;;;;;;55.33;23.50;;;2.30;99.90;;;;;;5120764;28;20058;-63
2022/01/26 07:12:46;;;;;;;48.30;22.17;;;2.40;99.90;;;;;;5104556;28;20043;-63
2022/01/26 07:23:20;;;;;;;49.90;21.60;;;2.40;99.90;;;;;;5104390;28;20068;-63
2022/01/26 07:25:46;;;;;;;48.15;23.00;;;2.40;99.90;;;;;;5102853;28;20108;-65
2022/01/26 07:28:11;;;;;;;51.75;23.95;;;2.30;99.90;;;;;;5123746;28;20035;-64
2022/01/26 07:30:37;;;;;;;48.58;22.50;;;2.30;99.90;;;;;;5103718;28;20054;-62
2022/01/26 07:33:04;;;;;;;49.10;22.27;;;2.30;99.90;;;;;;5135675;27;20111;-61
2022/01/26 07:35:30;;;;;;;53.88;23.92;;;2.30;99.90;;;;;;5119072;27;20054;-61
2022/01/26 07:38:01;;;;;;;49.67;20.85;;;2.30;99.90;;;;;;5110780;28;20107;-61
2022/01/26 07:40:28;;;;;;;52.70;21.85;;;2.40;99.90;;;;;;5105115;28;20048;-61
2022/01/26 07:42:54;;;;;;;48.45;23.13;;;2.50;99.90;;;;;;5112538;28;20078;-61
2022/01/26 07:45:20;;;;;;;50.35;21.60;;;2.60;99.90;;;;;;5112609;28;20043;-61
2022/01/26 07:47:47;;;;;;;45.72;19.40;;;2.80;99.90;;;;;;5100217;28;20043;-61
2022/01/26 07:50:15;;;;;;;53.17;22.40;;;2.90;99.90;;;;;;5087165;28;20051;-61
2022/01/26 07:52:42;;;;;;;51.25;22.65;;;2.70;99.90;;;;;;5101000;28;20051;-61
2022/01/26 07:55:11;;;;;;;52.80;24.75;;;2.70;99.90;;;;;;5109631;28;20044;-62
2022/01/26 07:57:37;;;;;;;49.88;23.73;;;2.50;99.90;;;;;;5113619;28;20107;-63
2022/01/26 08:00:05;;;;;;;53.53;25.10;;;2.60;99.90;;;;;;5104758;28;20079;-64
2022/01/26 08:02:31;;;;;;;53.08;25.05;;;2.60;99.90;;;;;;5112683;28;20051;-63
2022/01/26 08:04:57;;;;;;;51.55;24.13;;;2.50;99.90;;;;;;5087933;28;20075;-62
2022/01/26 08:07:23;;;;;;;50.55;25.08;;;2.50;99.90;;;;;;5132133;28;20059;-62
2022/01/26 08:09:49;;;;;;;59.05;25.63;;;2.60;99.90;;;;;;5115824;28;20046;-62
2022/01/26 08:12:15;;;;;;;51.75;25.13;;;2.50;99.90;;;;;;5122407;27;20115;-62
2022/01/26 08:14:42;;;;;;;55.38;27.42;;;2.50;99.90;;;;;;5117858;28;20035;-62
2022/01/26 08:17:08;;;;;;;59.42;27.45;;;2.60;99.90;;;;;;5125854;27;20059;-62
2022/01/26 08:19:35;;;;;;;48.65;23.80;;;2.60;99.90;;;;;;5094180;28;20062;-62
2022/01/26 08:22:02;;;;;;;59.42;29.02;;;2.80;99.90;;;;;;5110287;27;20051;-62
2022/01/26 08:24:32;;;;;;;52.75;25.77;;;2.60;99.90;;;;;;5137353;27;20050;-63
2022/01/26 08:27:05;;;;;;;57.55;27.67;;;2.70;99.90;;;;;;5110399;27;20545;-62
2022/01/26 08:29:38;;;;;;;58.55;27.63;;;2.60;99.90;;;;;;5103703;28;20048;-62
2022/01/26 08:32:04;;;;;;;59.67;27.45;;;2.70;99.90;;;;;;5125483;27;20046;-62
2022/01/26 08:34:30;;;;;;;55.67;26.00;;;2.70;99.90;;;;;;5116362;28;20062;-62
2022/01/26 08:36:56;;;;;;;59.35;28.98;;;2.70;99.90;;;;;;5123926;27;20057;-62
2022/01/26 08:39:22;;;;;;;64.05;30.73;;;2.70;99.90;;;;;;5101258;28;20058;-62
2022/01/26 08:41:48;;;;;;;62.25;30.70;;;2.60;99.90;;;;;;5125900;27;20559;-62
2022/01/26 08:44:14;;;;;;;70.35;32.58;;;2.60;99.90;;;;;;5105020;28;20393;-63
2022/01/26 08:46:40;;;;;;;69.85;31.58;;;2.70;99.90;;;;;;5125215;27;20290;-62
2022/01/26 08:49:06;;;;;;;73.20;34.72;;;2.70;99.90;;;;;;5119012;27;20032;-62
2022/01/26 08:51:32;;;;;;;72.28;35.80;;;2.70;99.90;;;;;;5095176;27;20051;-61
2022/01/26 08:53:58;;;;;;;68.00;33.28;;;2.70;99.90;;;;;;5102165;28;20079;-63
2022/01/26 08:56:25;;;;;;;72.40;32.58;;;2.70;99.90;;;;;;5100403;27;20050;-62
2022/01/26 08:58:50;;;;;;;76.97;35.13;;;2.70;99.90;;;;;;5104020;28;20044;-62
2022/01/26 09:01:16;;;;;;;78.70;38.15;;;2.70;99.90;;;;;;5118689;27;20515;-62
2022/01/26 09:03:43;;;;;;;76.10;37.13;;;2.80;99.90;;;;;;5105079;28;20044;-62
2022/01/26 09:06:09;;;;;;;80.85;39.80;;;2.80;99.90;;;;;;5099924;27;20058;-62
2022/01/26 09:08:39;;;;;;;76.10;36.70;;;2.80;99.90;;;;;;5107506;28;20052;-63
2022/01/26 09:11:04;;;;;;;75.93;38.30;;;2.80;99.90;;;;;;5118033;27;20101;-64
2022/01/26 09:13:32;;;;;;;82.90;38.50;;;2.80;99.90;;;;;;5108092;28;20096;-63
2022/01/26 09:16:00;;;;;;;79.47;38.97;;;2.80;99.90;;;;;;5096393;27;20047;-64
2022/01/26 09:18:46;;;;;;;84.47;40.10;;;2.80;99.90;;;;;;5105202;27;20513;-65
2022/01/26 09:21:12;;;;;;;85.75;41.00;;;2.90;99.90;;;;;;5114644;27;20555;-63
2022/01/26 09:23:37;;;;;;;83.68;41.40;;;2.90;99.90;;;;;;5121693;27;20075;-64
2022/01/26 09:26:04;;;;;;;88.30;42.42;;;3.00;99.90;;;;;;5099589;27;20067;-63
2022/01/26 09:28:29;;;;;;;89.15;41.83;;;2.90;99.90;;;;;;5122404;27;20056;-63
2022/01/26 09:30:55;;;;;;;87.85;42.38;;;3.00;99.90;;;;;;5097127;27;20051;-63
2022/01/26 09:33:21;;;;;;;83.75;41.15;;;2.90;99.90;;;;;;5112204;28;20028;-63
2022/01/26 09:35:47;;;;;;;90.40;42.15;;;3.00;99.90;;;;;;5095590;27;20089;-63
2022/01/26 09:38:13;;;;;;;89.03;45.85;;;3.00;99.90;;;;;;5108936;27;20043;-64
2022/01/26 09:40:39;;;;;;;93.57;43.97;;;3.00;99.90;;;;;;5095082;27;20283;-63
2022/01/26 09:43:06;;;;;;;89.57;43.80;;;3.00;99.90;;;;;;5109285;28;20074;-63
2022/01/26 09:45:34;;;;;;;88.40;42.58;;;3.00;99.90;;;;;;5107324;27;24547;-63
2022/01/26 09:48:04;;;;;;;94.97;47.45;;;3.10;99.90;;;;;;5130489;27;20050;-63
2022/01/26 09:50:31;;;;;;;93.22;46.88;;;3.10;99.90;;;;;;5090610;27;20051;-63
2022/01/26 09:52:58;;;;;;;98.80;46.35;;;3.00;99.90;;;;;;5109884;28;20043;-63
2022/01/26 09:55:25;;;;;;;95.25;46.85;;;3.10;99.90;;;;;;5085451;27;20078;-63
2022/01/26 09:57:57;;;;;;;94.18;44.70;;;3.10;99.90;;;;;;5109660;28;20063;-63
2022/01/26 10:00:26;;;;;;;93.53;43.97;;;3.10;99.90;;;;;;5101586;27;20085;-63
2022/01/26 10:02:57;;;;;;;93.57;45.90;;;3.20;99.90;;;;;;5132127;27;20043;-63
2022/01/26 10:05:23;;;;;;;92.43;45.13;;;3.20;99.90;;;;;;5088542;28;20061;-63
2022/01/26 10:08:01;;;;;;;94.25;47.53;;;3.30;99.90;;;;;;5132917;27;20198;-63
2022/01/26 10:19:10;;;;;;;92.75;45.00;;;3.40;99.90;;;;;;5102103;27;20048;-63
2022/01/26 10:21:50;;;;;;;95.38;45.55;;;3.40;99.90;;;;;;5097274;27;20083;-63
2022/01/26 10:24:18;;;;;;;93.10;42.77;;;3.40;99.90;;;;;;5102134;28;20298;-63
2022/01/26 10:26:56;;;;;;;93.85;46.28;;;3.50;99.90;;;;;;5108515;27;20400;-64
2022/01/26 10:29:22;;;;;;;91.43;44.38;;;3.40;99.90;;;;;;5089098;28;20092;-64
2022/01/26 10:31:48;;;;;;;98.53;45.22;;;3.50;99.90;;;;;;5085180;27;20165;-62
2022/01/26 10:34:16;;;;;;;96.03;45.55;;;3.50;99.90;;;;;;5103907;28;20081;-64
2022/01/26 10:36:54;;;;;;;90.03;42.70;;;3.50;99.90;;;;;;5100003;27;20173;-62
2022/01/26 10:39:36;;;;;;;91.80;45.75;;;3.50;99.90;;;;;;5104892;28;20066;-62
2022/01/26 10:42:07;;;;;;;88.43;43.95;;;3.60;99.90;;;;;;5101106;27;20047;-62
2022/01/26 10:44:48;;;;;;;85.30;42.55;;;3.50;99.90;;;;;;5107359;28;20043;-62
2022/01/26 10:47:15;;;;;;;89.10;44.50;;;3.60;99.90;;;;;;5098170;27;20118;-62
2022/01/26 10:52:37;;;;;;;83.47;42.17;;;3.60;99.90;;;;;;5103498;27;20043;-62
2022/01/26 10:55:06;;;;;;;88.60;43.58;;;3.70;99.90;;;;;;5083390;28;20093;-62
2022/01/26 10:57:33;;;;;;;86.95;44.13;;;3.60;99.90;;;;;;5105462;27;20047;-63
2022/01/26 10:59:59;;;;;;;87.20;42.58;;;3.60;99.90;;;;;;5101916;28;20077;-62
2022/01/26 11:02:30;;;;;;;81.97;41.53;;;3.70;99.90;;;;;;5098380;27;20047;-62
2022/01/26 11:04:56;;;;;;;82.28;41.88;;;3.70;99.90;;;;;;5080694;28;20036;-62
2022/01/26 11:07:32;;;;;;;79.60;41.85;;;3.80;99.90;;;;;;5122817;27;20847;-62
2022/01/26 11:10:03;;;;;;;84.40;42.83;;;3.70;99.90;;;;;;5096443;28;20039;-62
2022/01/26 11:12:31;;;;;;;86.78;43.70;;;3.80;99.90;;;;;;5100491;27;20610;-62
2022/01/26 11:15:04;;;;;;;82.80;41.83;;;3.80;99.90;;;;;;5111775;27;20104;-64
2022/01/26 11:17:34;;;;;;;82.90;40.72;;;3.80;99.90;;;;;;5119069;28;20054;-63
2022/01/26 11:20:03;;;;;;;76.97;40.83;;;3.80;99.90;;;;;;5110366;28;20051;-63
2022/01/26 11:22:32;;;;;;;80.60;42.42;;;3.80;99.90;;;;;;5102311;28;20683;-63
2022/01/26 11:25:11;;;;;;;81.32;40.90;;;3.90;99.90;;;;;;5100428;28;20049;-63
2022/01/26 11:27:40;;;;;;;81.80;40.33;;;3.80;99.90;;;;;;5100463;28;20085;-63
2022/01/26 11:30:17;;;;;;;81.35;41.55;;;3.80;99.90;;;;;;5120122;28;20043;-63
2022/01/26 11:32:56;;;;;;;79.15;39.58;;;3.80;99.90;;;;;;5120040;27;20088;-63
2022/01/26 11:35:24;;;;;;;76.23;39.00;;;3.90;99.90;;;;;;5096529;28;20056;-63
2022/01/26 11:38:51;;;;;;;77.47;39.20;;;3.90;99.90;;;;;;5104484;28;20071;-64
2022/01/26 11:47:21;;;;;;;76.90;39.25;;;3.90;99.90;;;;;;5109631;28;20138;-63
2022/01/26 11:49:49;;;;;;;74.38;37.80;;;3.90;99.90;;;;;;5117443;28;20419;-63
2022/01/26 11:52:26;;;;;;;76.13;37.92;;;3.90;99.90;;;;;;5099247;27;20059;-63
2022/01/26 11:54:59;;;;;;;78.40;40.35;;;3.90;99.90;;;;;;5127052;27;20075;-63
2022/01/26 11:57:38;;;;;;;77.30;39.65;;;4.00;99.90;;;;;;5102711;27;20043;-63
2022/01/26 12:00:09;;;;;;;80.63;39.90;;;4.10;99.90;;;;;;5107883;28;20062;-63
2022/01/26 12:02:51;;;;;;;75.97;39.42;;;4.00;99.90;;;;;;5104404;27;20288;-62
2022/01/26 12:05:21;;;;;;;79.80;38.17;;;4.10;99.90;;;;;;5118745;27;20531;-61
2022/01/26 12:07:59;;;;;;;75.93;35.53;;;4.00;99.90;;;;;;5123016;27;20206;-61
2022/01/26 12:10:30;;;;;;;73.18;38.50;;;4.10;99.90;;;;;;5103341;28;20231;-63
2022/01/26 12:13:04;;;;;;;73.20;37.88;;;4.10;99.90;;;;;;5124882;27;20043;-63
2022/01/26 12:15:33;;;;;;;78.25;36.75;;;4.10;99.90;;;;;;5100125;27;20051;-63
2022/01/26 12:18:18;;;;;;;74.82;39.03;;;4.10;99.90;;;;;;5102568;27;20143;-63
2022/01/26 12:38:33;;;;;;;74.00;37.58;;;4.10;99.90;;;;;;5126615;27;20541;-63
2022/01/26 12:41:26;;;;;;;77.32;38.45;;;4.20;99.90;;;;;;5098518;28;20138;-63
2022/01/26 12:43:54;;;;;;;75.07;36.25;;;4.00;99.90;;;;;;5104886;28;20111;-63
2022/01/26 12:46:20;;;;;;;71.50;34.30;;;4.10;99.90;;;;;;5092788;27;20493;-64
2022/01/26 12:48:53;;;;;;;76.18;35.92;;;4.10;99.90;;;;;;5118960;28;20450;-63
2022/01/26 12:51:20;;;;;;;71.13;35.75;;;4.10;99.90;;;;;;5128761;27;20046;-64
2022/01/26 12:54:01;;;;;;;68.82;35.30;;;4.10;99.90;;;;;;5117022;27;20669;-63
2022/01/26 12:56:30;;;;;;;75.57;35.40;;;4.10;99.90;;;;;;5088324;27;20121;-63
2022/01/26 12:59:07;;;;;;;65.88;33.60;;;4.10;99.90;;;;;;5112394;28;20097;-63
2022/01/26 13:01:34;;;;;;;70.22;35.58;;;4.10;99.90;;;;;;5129581;27;20040;-64
2022/01/26 13:04:02;;;;;;;62.28;33.30;;;4.10;99.90;;;;;;5114551;28;20046;-63
2022/01/26 13:06:37;;;;;;;70.82;34.60;;;4.10;99.90;;;;;;5089743;27;20047;-64
2022/01/26 13:09:25;;;;;;;64.50;31.92;;;4.10;99.90;;;;;;5094619;28;20040;-63
2022/01/26 13:11:54;;;;;;;63.95;33.38;;;4.10;99.90;;;;;;5110044;27;20043;-61
2022/01/26 13:14:25;;;;;;;63.20;32.30;;;4.00;99.90;;;;;;5114671;28;20489;-61
2022/01/26 13:30:03;;;;;;;66.75;30.90;;;4.10;99.90;;;;;;5108720;28;20047;-61
2022/01/26 13:35:23;;;;;;;67.55;29.70;;;4.10;99.90;;;;;;5111024;28;20075;-61
2022/01/26 13:53:46;;;;;;;64.43;29.85;;;4.30;99.90;;;;;;5129204;27;20074;-62
2022/01/26 13:56:20;;;;;;;56.17;29.05;;;4.30;99.90;;;;;;5119762;28;20098;-61
2022/01/26 14:01:17;;;;;;;60.65;28.88;;;4.30;99.90;;;;;;5116496;28;20043;-63
2022/01/26 14:03:46;;;;;;;58.30;28.77;;;4.30;99.90;;;;;;5115564;27;20058;-63
2022/01/26 14:06:12;;;;;;;59.80;31.70;;;4.40;99.90;;;;;;5111286;28;20039;-63
2022/01/26 14:08:38;;;;;;;55.50;29.35;;;4.30;99.90;;;;;;5120693;27;20054;-63
2022/01/26 14:11:04;;;;;;;58.03;29.60;;;4.30;99.90;;;;;;5149472;27;20047;-63
2022/01/26 14:13:30;;;;;;;57.65;28.58;;;4.30;99.90;;;;;;5122082;27;20122;-63
2022/01/26 14:15:58;;;;;;;61.13;29.70;;;4.40;99.90;;;;;;5101931;27;20094;-63
2022/01/26 14:21:10;;;;;;;56.50;29.77;;;4.40;99.90;;;;;;5102247;27;20065;-63
2022/01/26 14:26:24;;;;;;;51.10;28.45;;;4.40;99.90;;;;;;5149408;27;20039;-63
2022/01/26 14:28:50;;;;;;;55.90;27.93;;;4.40;99.90;;;;;;5125033;27;20035;-63
2022/01/26 15:30:14;;;;;;;47.30;28.48;;;4.70;99.90;;;;;;5068368;28;20048;-61
2022/01/26 15:35:50;;;;;;;49.97;28.90;;;4.70;99.90;;;;;;5050293;28;20045;-61
2022/01/26 15:41:33;;;;;;;54.85;28.63;;;4.70;99.90;;;;;;5057911;28;20053;-62
2022/01/26 15:57:42;;;;;;;49.72;29.00;;;4.80;99.90;;;;;;5029591;28;20499;-63
2022/01/26 16:07:50;;;;;;;49.45;26.00;;;4.70;99.90;;;;;;5090307;27;20058;-63
2022/01/26 16:37:43;;;;;;;55.47;30.17;;;4.70;99.90;;;;;;5104904;28;20054;-64
2022/01/26 18:39:29;;;;;;;39.90;25.00;;;5.30;99.90;;;;;;5123778;27;20061;-66
2022/01/26 18:50:04;;;;;;;38.17;22.13;;;5.40;99.90;;;;;;5090803;28;20040;-66
2022/01/26 18:52:32;;;;;;;38.78;24.35;;;5.40;99.90;;;;;;5127241;27;20047;-66
2022/01/26 18:54:58;;;;;;;37.88;23.35;;;5.50;99.90;;;;;;5076379;28;20043;-66
2022/01/26 18:57:24;;;;;;;38.33;24.00;;;5.40;99.90;;;;;;5128289;27;20056;-66
2022/01/26 18:59:50;;;;;;;37.13;24.00;;;5.40;99.90;;;;;;5085462;27;20620;-66
2022/01/26 19:02:15;;;;;;;34.45;21.73;;;5.60;99.90;;;;;;5076903;28;20040;-66
2022/01/26 19:04:45;;;;;;;37.15;23.85;;;5.50;99.90;;;;;;5102999;27;20047;-66
2022/01/26 19:07:11;;;;;;;37.45;22.60;;;5.50;99.90;;;;;;5091830;28;20071;-66
2022/01/26 19:09:41;;;;;;;40.13;23.85;;;5.50;99.90;;;;;;5103617;27;20537;-66
2022/01/26 19:12:10;;;;;;;36.30;22.42;;;5.50;99.90;;;;;;5095006;28;20507;-66
2022/01/26 19:14:39;;;;;;;38.27;21.50;;;5.50;99.90;;;;;;5095998;28;20316;-65
2022/01/26 19:20:21;;;;;;;35.75;22.08;;;5.60;99.90;;;;;;5083281;28;20062;-65
2022/01/26 19:23:39;;;;;;;36.65;22.77;;;5.60;99.90;;;;;;5099255;28;20335;-66
2022/01/26 19:25:38;;;;;;;34.50;22.15;;;5.60;99.90;;;;;;5092346;28;20070;-65
2022/01/26 19:28:28;;;;;;;34.03;21.20;;;5.60;99.90;;;;;;5102336;28;20082;-65
2022/01/26 19:45:05;;;;;;;34.58;21.80;;;5.60;99.90;;;;;;5111508;28;20073;-65
2022/01/26 19:47:29;;;;;;;34.38;22.27;;;5.70;99.90;;;;;;5080605;28;20044;-65
2022/01/26 19:52:41;;;;;;;37.28;23.40;;;5.70;99.90;;;;;;5109800;28;20040;-65
2022/01/26 19:55:09;;;;;;;40.97;24.83;;;5.70;99.90;;;;;;5110848;28;20056;-66
2022/01/26 19:57:35;;;;;;;37.50;22.77;;;5.60;99.90;;;;;;5110572;28;20103;-65